createdAt,value
2018-09-02T00:01:16.169Z,14.78
2018-09-02T00:03:50.960Z,11.05
2018-09-02T00:06:25.841Z,14.65
2018-09-02T00:09:00.877Z,12.73
2018-09-02T00:11:35.765Z,11.93
2018-09-02T00:14:10.664Z,12.63
2018-09-02T00:16:45.743Z,14.78
2018-09-02T00:19:20.736Z,13.13
2018-09-02T00:21:55.697Z,11.53
2018-09-02T00:24:30.521Z,11.70
2018-09-02T00:27:05.708Z,12.80
2018-09-02T00:29:40.662Z,11.43
2018-09-02T00:32:15.643Z,12.18
2018-09-02T00:34:50.764Z,12.07
2018-09-02T00:37:25.797Z,11.97
2018-09-02T00:40:00.879Z,15.70
2018-09-02T00:42:35.864Z,12.23
2018-09-02T00:45:10.657Z,13.98
2018-09-02T00:47:45.444Z,11.78
2018-09-02T00:50:20.425Z,12.28
2018-09-02T00:52:55.405Z,13.18
2018-09-02T00:55:30.173Z,13.68
2018-09-02T00:58:05.148Z,16.87
2018-09-02T01:00:39.752Z,15.65
2018-09-02T01:03:14.689Z,13.40
2018-09-02T01:05:50.835Z,12.43
2018-09-02T01:08:25.920Z,12.25
2018-09-02T01:11:00.696Z,12.73
2018-09-02T01:13:35.350Z,15.20
2018-09-02T01:16:10.253Z,13.00
2018-09-02T01:18:45.002Z,13.60
2018-09-02T01:21:20.180Z,13.93
2018-09-02T01:23:55.308Z,15.88
2018-09-02T01:26:30.287Z,12.75
2018-09-02T01:29:05.315Z,13.58
2018-09-02T01:31:40.145Z,13.45
2018-09-02T01:34:14.960Z,14.00
2018-09-02T01:36:49.794Z,13.48
2018-09-02T01:39:25.004Z,14.38
2018-09-02T01:42:00.163Z,15.20
2018-09-02T01:44:35.028Z,13.35
2018-09-02T01:47:09.798Z,12.82
2018-09-02T01:49:44.579Z,13.43
2018-09-02T01:52:19.472Z,13.62
2018-09-02T01:54:54.081Z,14.28
2018-09-02T01:57:29.141Z,14.85
2018-09-02T02:00:04.297Z,16.85
2018-09-02T02:02:38.992Z,14.25
2018-09-02T02:05:14.008Z,14.38
2018-09-02T02:07:48.877Z,17.10
2018-09-02T02:10:23.984Z,13.13
2018-09-02T02:12:58.906Z,13.35
2018-09-02T02:15:33.725Z,14.80
2018-09-02T02:18:08.895Z,14.23
2018-09-02T02:20:43.577Z,15.95
2018-09-02T02:23:18.452Z,12.37
2018-09-02T02:25:53.135Z,12.45
2018-09-02T02:28:27.860Z,11.18
2018-09-02T02:31:02.828Z,15.13
2018-09-02T02:33:37.689Z,12.65
2018-09-02T02:36:12.804Z,13.85
2018-09-02T02:38:47.502Z,9.60
2018-09-02T02:41:22.180Z,15.03
2018-09-02T02:43:56.981Z,17.37
2018-09-02T02:46:32.116Z,14.87
2018-09-02T02:49:07.263Z,17.95
2018-09-02T02:51:41.901Z,17.23
2018-09-02T02:54:16.819Z,16.87
2018-09-02T02:56:51.859Z,18.77
2018-09-02T02:59:26.841Z,12.45
2018-09-02T03:02:01.936Z,15.18
2018-09-02T03:04:36.771Z,12.03
2018-09-02T03:07:12.252Z,13.90
2018-09-02T03:09:47.097Z,10.03
2018-09-02T03:12:21.912Z,12.43
2018-09-02T03:14:56.651Z,12.73
2018-09-02T03:17:31.839Z,11.25
2018-09-02T03:20:06.787Z,10.80
2018-09-02T03:22:41.786Z,13.50
2018-09-02T03:25:16.627Z,11.80
2018-09-02T03:27:51.502Z,10.68
2018-09-02T03:30:26.310Z,11.80
2018-09-02T03:33:01.111Z,14.35
2018-09-02T03:35:36.122Z,13.95
2018-09-02T03:38:10.953Z,13.70
2018-09-02T03:40:45.801Z,13.08
2018-09-02T03:43:20.529Z,10.88
2018-09-02T03:45:55.249Z,10.25
2018-09-02T03:48:30.203Z,13.05
2018-09-02T03:51:05.112Z,12.70
2018-09-02T03:53:39.892Z,12.93
2018-09-02T03:56:14.721Z,18.50
2018-09-02T03:58:49.840Z,17.32
2018-09-02T04:01:25.004Z,13.53
2018-09-02T04:03:59.822Z,11.35
2018-09-02T04:06:34.832Z,14.23
2018-09-02T04:09:11.073Z,10.48
2018-09-02T04:11:45.968Z,8.80
2018-09-02T04:14:20.960Z,11.60
2018-09-02T04:16:55.852Z,13.70
2018-09-02T04:19:30.708Z,14.68
2018-09-02T04:22:05.592Z,14.98
2018-09-02T04:24:40.652Z,11.57
2018-09-02T04:27:15.575Z,13.28
2018-09-02T04:29:50.439Z,13.70
2018-09-02T04:32:25.364Z,16.02
2018-09-02T04:35:00.213Z,16.35
2018-09-02T04:37:34.923Z,14.40
2018-09-02T04:40:09.633Z,13.70
2018-09-02T04:42:44.488Z,12.73
2018-09-02T04:45:19.400Z,14.03
2018-09-02T04:47:54.292Z,16.30
2018-09-02T04:50:29.136Z,14.65
2018-09-02T04:53:03.991Z,13.43
2018-09-02T04:55:38.816Z,12.63
2018-09-02T04:58:13.794Z,13.50
2018-09-02T05:00:48.669Z,15.35
2018-09-02T05:03:23.496Z,13.40
2018-09-02T05:05:58.447Z,13.35
2018-09-02T05:08:33.413Z,13.95
2018-09-02T05:11:08.303Z,13.83
2018-09-02T05:13:43.366Z,14.30
2018-09-02T05:16:18.028Z,14.05
2018-09-02T05:18:52.687Z,10.38
2018-09-02T05:21:27.967Z,12.10
2018-09-02T05:24:02.564Z,15.90
2018-09-02T05:26:37.471Z,14.78
2018-09-02T05:29:12.432Z,15.15
2018-09-02T05:31:47.333Z,11.50
2018-09-02T05:34:22.327Z,14.30
2018-09-02T05:36:57.374Z,15.53
2018-09-02T05:39:32.164Z,15.60
2018-09-02T05:42:06.980Z,13.65
2018-09-02T05:44:42.152Z,14.55
2018-09-02T05:47:16.960Z,12.90
2018-09-02T05:49:51.667Z,13.28
2018-09-02T05:52:26.644Z,11.78
2018-09-02T05:55:01.311Z,11.22
2018-09-02T05:57:36.404Z,19.45
2018-09-02T06:00:11.291Z,16.52
2018-09-02T06:02:46.146Z,13.48
2018-09-02T06:05:24.980Z,18.52
2018-09-02T06:07:59.791Z,14.35
2018-09-02T06:10:34.796Z,14.85
2018-09-02T06:13:09.481Z,12.85
2018-09-02T06:15:44.499Z,7.65
2018-09-02T06:18:19.584Z,8.08
2018-09-02T06:20:54.392Z,8.17
2018-09-02T06:23:29.339Z,7.43
2018-09-02T06:26:04.355Z,7.37
2018-09-02T06:28:39.491Z,7.83
2018-09-02T06:31:14.612Z,8.07
2018-09-02T06:33:49.589Z,8.47
2018-09-02T06:36:24.336Z,8.20
2018-09-02T06:38:59.269Z,7.83
2018-09-02T06:41:33.972Z,9.60
2018-09-02T06:44:09.247Z,9.53
2018-09-02T06:46:44.052Z,10.37
2018-09-02T06:49:18.870Z,10.60
2018-09-02T06:51:53.651Z,9.10
2018-09-02T06:54:28.725Z,8.80
2018-09-02T06:57:03.572Z,10.85
2018-09-02T06:59:38.769Z,7.97
2018-09-02T07:02:13.601Z,8.45
2018-09-02T07:04:48.703Z,8.95
2018-09-02T07:07:23.960Z,7.70
2018-09-02T07:09:59.056Z,6.05
2018-09-02T07:12:34.039Z,7.60
2018-09-02T07:15:08.857Z,6.53
2018-09-02T07:17:44.071Z,6.92
2018-09-02T07:20:19.116Z,8.05
2018-09-02T07:22:53.989Z,9.03
2018-09-02T07:25:28.931Z,10.82
2018-09-02T07:28:03.921Z,6.57
2018-09-02T07:30:38.945Z,7.37
2018-09-02T07:33:13.948Z,7.28
2018-09-02T07:35:50.483Z,7.83
2018-09-02T07:38:25.488Z,8.48
2018-09-02T07:41:00.489Z,9.27
2018-09-02T07:43:35.132Z,6.83
2018-09-02T07:46:10.135Z,7.33
2018-09-02T07:48:45.438Z,7.43
2018-09-02T07:51:20.261Z,7.50
2018-09-02T07:53:54.887Z,9.33
2018-09-02T07:56:29.760Z,8.10
2018-09-02T07:59:04.478Z,6.37
2018-09-02T08:01:41.589Z,6.90
2018-09-02T08:04:17.280Z,6.53
2018-09-02T08:06:53.068Z,8.43
2018-09-02T08:09:28.040Z,6.97
2018-09-02T08:12:03.220Z,9.20
2018-09-02T08:14:38.967Z,6.50
2018-09-02T08:17:13.904Z,6.43
2018-09-02T08:19:50.043Z,7.60
2018-09-02T08:22:24.747Z,7.33
2018-09-02T08:24:59.663Z,7.37
2018-09-02T08:27:36.185Z,5.70
2018-09-02T08:30:10.920Z,9.17
2018-09-02T08:32:46.352Z,7.10
2018-09-02T08:35:21.417Z,5.97
2018-09-02T08:37:56.260Z,8.50
2018-09-02T08:40:31.800Z,6.57
2018-09-02T08:43:07.295Z,5.63
2018-09-02T08:45:42.828Z,6.03
2018-09-02T08:48:17.566Z,7.73
2018-09-02T08:50:52.799Z,5.37
2018-09-02T08:53:28.980Z,5.70
2018-09-02T08:56:04.040Z,6.17
2018-09-02T08:58:38.912Z,7.87
2018-09-02T09:01:13.859Z,5.07
2018-09-02T09:03:49.803Z,7.17
2018-09-02T09:06:25.316Z,6.37
2018-09-02T09:09:00.333Z,7.00
2018-09-02T09:11:35.327Z,7.03
2018-09-02T09:14:11.772Z,5.00
2018-09-02T09:16:46.586Z,6.03
2018-09-02T09:19:22.113Z,5.70
2018-09-02T09:21:56.892Z,5.87
2018-09-02T09:24:31.680Z,6.47
2018-09-02T09:27:06.930Z,6.50
2018-09-02T09:29:42.052Z,6.47
2018-09-02T09:32:18.336Z,5.80
2018-09-02T09:34:53.600Z,6.23
2018-09-02T09:37:29.245Z,5.60
2018-09-02T09:40:04.649Z,6.97
2018-09-02T09:42:40.089Z,6.53
2018-09-02T09:45:15.680Z,5.83
2018-09-02T09:47:51.696Z,7.40
2018-09-02T09:50:27.034Z,7.90
2018-09-02T09:53:01.880Z,5.20
2018-09-02T09:55:36.894Z,6.50
2018-09-02T09:58:11.971Z,5.80
2018-09-02T10:00:49.647Z,5.77
2018-09-02T10:03:24.757Z,6.00
2018-09-02T10:06:00.033Z,7.23
2018-09-02T10:08:34.808Z,5.60
2018-09-02T10:11:09.952Z,5.83
2018-09-02T10:13:45.669Z,5.27
2018-09-02T10:16:20.575Z,5.23
2018-09-02T10:18:56.167Z,5.83
2018-09-02T10:21:30.908Z,5.33
2018-09-02T10:24:06.445Z,7.00
2018-09-02T10:26:41.443Z,5.90
2018-09-02T10:29:16.257Z,5.90
2018-09-02T10:31:51.356Z,4.77
2018-09-02T10:34:26.492Z,8.93
2018-09-02T10:37:07.434Z,8.03
2018-09-02T10:39:42.387Z,7.47
2018-09-02T10:42:17.070Z,7.83
2018-09-02T10:44:52.190Z,6.73
2018-09-02T10:47:26.932Z,5.40
2018-09-02T10:50:01.718Z,4.90
2018-09-02T10:52:36.708Z,8.33
2018-09-02T10:55:11.951Z,5.00
2018-09-02T10:57:46.666Z,5.57
2018-09-02T11:00:21.427Z,7.43
2018-09-02T11:02:56.335Z,4.53
2018-09-02T11:05:31.165Z,5.03
2018-09-02T11:08:06.046Z,4.83
2018-09-02T11:10:41.108Z,4.77
2018-09-02T11:13:16.243Z,4.87
2018-09-02T11:15:51.281Z,5.20
2018-09-02T11:18:26.496Z,8.43
2018-09-02T11:21:01.193Z,4.50
2018-09-02T11:23:35.876Z,4.97
2018-09-02T11:26:10.595Z,5.97
2018-09-02T11:28:45.314Z,4.30
2018-09-02T11:31:20.248Z,6.20
2018-09-02T11:33:55.081Z,5.23
2018-09-02T11:36:30.215Z,8.13
2018-09-02T11:39:07.725Z,3.80
2018-09-02T11:41:42.536Z,4.10
2018-09-02T11:44:17.751Z,5.53
2018-09-02T11:46:52.846Z,5.00
2018-09-02T11:49:27.707Z,4.77
2018-09-02T11:52:02.676Z,4.60
2018-09-02T11:54:37.524Z,5.87
2018-09-02T11:57:12.398Z,6.17
2018-09-02T11:59:47.285Z,4.23
2018-09-02T12:02:22.085Z,4.77
2018-09-02T12:04:56.778Z,4.10
2018-09-02T12:07:31.857Z,4.30
2018-09-02T12:10:06.792Z,3.93
2018-09-02T12:12:41.699Z,4.10
2018-09-02T12:15:16.681Z,4.10
2018-09-02T12:17:51.897Z,5.57
2018-09-02T12:20:26.821Z,6.63
2018-09-02T12:23:01.450Z,3.77
2018-09-02T12:25:36.100Z,4.07
2018-09-02T12:28:11.015Z,4.13
2018-09-02T12:30:45.913Z,5.70
2018-09-02T12:33:20.743Z,4.20
2018-09-02T12:35:55.633Z,4.80
2018-09-02T12:38:30.479Z,3.93
2018-09-02T12:41:05.668Z,4.40
2018-09-02T12:43:40.626Z,4.67
2018-09-02T12:46:15.788Z,3.87
2018-09-02T12:48:51.012Z,5.43
2018-09-02T12:51:26.044Z,4.63
2018-09-02T12:54:00.945Z,4.20
2018-09-02T12:56:35.733Z,4.30
2018-09-02T12:59:10.856Z,6.80
2018-09-02T13:01:45.767Z,5.53
2018-09-02T13:04:20.661Z,4.97
2018-09-02T13:06:55.289Z,4.13
2018-09-02T13:09:30.299Z,4.37
2018-09-02T13:12:05.453Z,4.50
2018-09-02T13:14:40.483Z,5.20
2018-09-02T13:17:15.520Z,3.47
2018-09-02T13:19:50.323Z,5.80
2018-09-02T13:22:24.892Z,5.00
2018-09-02T13:24:59.859Z,4.27
2018-09-02T13:27:34.667Z,3.80
2018-09-02T13:30:10.508Z,3.40
2018-09-02T13:32:45.372Z,3.30
2018-09-02T13:35:20.246Z,7.90
2018-09-02T13:37:55.397Z,3.73
2018-09-02T13:40:30.166Z,4.00
2018-09-02T13:43:05.325Z,5.00
2018-09-02T13:45:40.089Z,3.90
2018-09-02T13:48:15.325Z,3.93
2018-09-02T13:50:50.563Z,3.53
2018-09-02T13:53:25.499Z,5.00
2018-09-02T13:56:00.476Z,5.50
2018-09-02T13:58:35.216Z,5.60
2018-09-02T14:01:09.954Z,3.97
2018-09-02T14:03:44.525Z,3.77
2018-09-02T14:06:19.439Z,4.60
2018-09-02T14:08:54.739Z,3.43
2018-09-02T14:11:29.688Z,3.80
2018-09-02T14:14:04.504Z,10.13
2018-09-02T14:16:39.511Z,4.13
2018-09-02T14:19:14.338Z,5.27
2018-09-02T14:21:49.327Z,4.20
2018-09-02T14:24:24.215Z,3.57
2018-09-02T14:26:58.987Z,3.73
2018-09-02T14:29:33.899Z,4.00
2018-09-02T14:32:08.821Z,4.37
2018-09-02T14:34:43.956Z,4.17
2018-09-02T14:37:18.932Z,4.43
2018-09-02T14:39:53.810Z,3.80
2018-09-02T14:42:28.445Z,4.00
2018-09-02T14:45:03.403Z,5.43
2018-09-02T14:47:38.279Z,4.13
2018-09-02T14:50:13.011Z,4.50
2018-09-02T14:52:47.820Z,4.90
2018-09-02T14:55:22.605Z,4.80
2018-09-02T14:57:57.381Z,6.33
2018-09-02T15:00:32.284Z,4.53
2018-09-02T15:03:07.305Z,5.10
2018-09-02T15:05:42.405Z,4.30
2018-09-02T15:08:17.331Z,4.60
2018-09-02T15:10:52.420Z,4.53
2018-09-02T15:13:27.349Z,5.10
2018-09-02T15:16:02.297Z,8.57
2018-09-02T15:18:37.317Z,6.27
2018-09-02T15:21:12.093Z,5.47
2018-09-02T15:23:47.001Z,5.00
2018-09-02T15:26:21.828Z,4.30
2018-09-02T15:28:56.768Z,8.03
2018-09-02T15:31:31.576Z,5.53
2018-09-02T15:34:06.760Z,5.73
2018-09-02T15:36:41.417Z,6.60
2018-09-02T15:39:16.140Z,4.60
2018-09-02T15:41:51.258Z,8.80
2018-09-02T15:44:26.269Z,4.83
2018-09-02T15:47:00.913Z,5.10
2018-09-02T15:49:35.941Z,6.10
2018-09-02T15:52:11.235Z,6.13
2018-09-02T15:54:46.057Z,6.40
2018-09-02T15:57:20.908Z,6.10
2018-09-02T15:59:56.128Z,5.50
2018-09-02T16:02:31.021Z,4.83
2018-09-02T16:05:06.160Z,4.67
2018-09-02T16:07:41.148Z,5.43
2018-09-02T16:10:16.030Z,5.83
2018-09-02T16:12:51.020Z,5.03
2018-09-02T16:15:25.818Z,4.90
2018-09-02T16:18:00.524Z,5.97
2018-09-02T16:20:35.165Z,5.10
2018-09-02T16:23:10.152Z,5.57
2018-09-02T16:25:44.935Z,4.83
2018-09-02T16:28:20.012Z,6.07
2018-09-02T16:30:55.015Z,5.27
2018-09-02T16:33:29.652Z,5.13
2018-09-02T16:36:04.774Z,6.90
2018-09-02T16:38:39.468Z,6.00
2018-09-02T16:41:14.302Z,5.03
2018-09-02T16:43:49.236Z,5.33
2018-09-02T16:46:24.644Z,6.60
2018-09-02T16:48:59.611Z,7.63
2018-09-02T16:51:34.576Z,9.30
2018-09-02T16:54:09.799Z,6.00
2018-09-02T16:56:44.805Z,7.00
2018-09-02T16:59:19.654Z,5.03
2018-09-02T17:01:54.744Z,6.57
2018-09-02T17:04:31.949Z,9.20
2018-09-02T17:07:06.876Z,6.50
2018-09-02T17:09:41.565Z,6.83
2018-09-02T17:12:16.542Z,8.07
2018-09-02T17:14:51.588Z,8.00
2018-09-02T17:17:26.556Z,8.57
2018-09-02T17:20:01.374Z,8.73
2018-09-02T17:22:36.350Z,7.97
2018-09-02T17:25:11.544Z,10.17
2018-09-02T17:27:46.723Z,7.90
2018-09-02T17:30:22.012Z,7.27
2018-09-02T17:32:57.552Z,8.13
2018-09-02T17:35:32.640Z,9.20
2018-09-02T17:38:07.897Z,6.90
2018-09-02T17:40:42.837Z,6.30
2018-09-02T17:43:18.059Z,6.43
2018-09-02T17:45:53.260Z,6.70
2018-09-02T17:48:28.248Z,8.30
2018-09-02T17:51:03.023Z,6.50
2018-09-02T17:53:37.948Z,6.37
2018-09-02T17:56:12.805Z,5.50
2018-09-02T17:58:47.930Z,7.70
2018-09-02T18:01:23.263Z,5.37
2018-09-02T18:03:58.186Z,7.00
2018-09-02T18:06:33.084Z,5.33
2018-09-02T18:09:09.622Z,7.00
2018-09-02T18:11:44.609Z,6.63
2018-09-02T18:14:19.477Z,6.50
2018-09-02T18:16:54.504Z,5.60
2018-09-02T18:19:29.358Z,12.50
2018-09-02T18:22:04.260Z,6.83
2018-09-02T18:24:39.292Z,5.80
2018-09-02T18:27:15.080Z,5.90
2018-09-02T18:29:54.927Z,6.00
2018-09-02T18:32:31.662Z,7.53
2018-09-02T18:35:06.846Z,7.07
2018-09-02T18:37:41.844Z,11.77
2018-09-02T18:40:16.773Z,7.77
2018-09-02T18:42:52.212Z,8.80
2018-09-02T18:45:27.213Z,5.90
2018-09-02T18:48:01.913Z,12.53
2018-09-02T18:50:36.888Z,8.60
2018-09-02T18:53:11.781Z,8.03
2018-09-02T18:55:46.788Z,8.60
2018-09-02T18:58:21.978Z,8.17
2018-09-02T19:00:56.681Z,9.97
2018-09-02T19:03:31.521Z,11.33
2018-09-02T19:06:06.376Z,7.43
2018-09-02T19:08:41.339Z,9.23
2018-09-02T19:11:16.398Z,7.80
2018-09-02T19:13:51.298Z,9.20
2018-09-02T19:16:26.305Z,7.50
2018-09-02T19:19:01.504Z,11.83
2018-09-02T19:21:36.241Z,10.20
2018-09-02T19:24:10.969Z,11.33
2018-09-02T19:26:45.983Z,9.67
2018-09-02T19:29:20.941Z,9.63
2018-09-02T19:31:55.919Z,10.10
2018-09-02T19:34:31.297Z,8.47
2018-09-02T19:37:06.464Z,10.10
2018-09-02T19:39:41.273Z,11.13
2018-09-02T19:42:15.977Z,8.87
2018-09-02T19:44:51.104Z,9.00
2018-09-02T19:47:25.853Z,10.07
2018-09-02T19:50:01.071Z,11.10
2018-09-02T19:52:35.820Z,10.23
2018-09-02T19:55:11.059Z,7.97
2018-09-02T19:57:46.151Z,9.93
2018-09-02T20:00:21.011Z,13.03
2018-09-02T20:02:55.885Z,9.33
2018-09-02T20:05:30.917Z,9.50
2018-09-02T20:08:05.843Z,8.87
2018-09-02T20:10:40.624Z,8.73
2018-09-02T20:13:16.784Z,12.00
2018-09-02T20:15:51.881Z,12.43
2018-09-02T20:18:26.613Z,10.40
2018-09-02T20:21:01.272Z,10.93
2018-09-02T20:23:36.156Z,12.23
2018-09-02T20:26:11.159Z,10.23
2018-09-02T20:28:46.136Z,10.67
2018-09-02T20:31:21.169Z,9.20
2018-09-02T20:33:56.241Z,10.77
2018-09-02T20:36:31.076Z,13.87
2018-09-02T20:39:08.315Z,10.13
2018-09-02T20:41:43.324Z,13.63
2018-09-02T20:44:17.968Z,11.50
2018-09-02T20:46:52.734Z,12.80
2018-09-02T20:49:27.756Z,10.70
2018-09-02T20:52:02.449Z,9.13
2018-09-02T20:54:37.320Z,9.83
2018-09-02T20:57:12.241Z,11.27
2018-09-02T20:59:47.219Z,13.53
2018-09-02T21:02:22.057Z,11.03
2018-09-02T21:04:56.869Z,10.40
2018-09-02T21:07:31.735Z,8.93
2018-09-02T21:10:06.980Z,11.53
2018-09-02T21:12:41.907Z,9.90
2018-09-02T21:15:16.572Z,8.77
2018-09-02T21:17:51.284Z,10.17
2018-09-02T21:20:25.964Z,10.17
2018-09-02T21:23:01.118Z,8.97
2018-09-02T21:25:35.839Z,8.97
2018-09-02T21:28:10.673Z,9.70
2018-09-02T21:30:45.811Z,8.83
2018-09-02T21:33:20.649Z,12.00
2018-09-02T21:35:55.679Z,9.13
2018-09-02T21:38:30.475Z,9.20
2018-09-02T21:41:05.534Z,9.03
2018-09-02T21:43:40.169Z,14.97
2018-09-02T21:46:15.268Z,11.60
2018-09-02T21:48:50.327Z,11.90
2018-09-02T21:51:25.288Z,12.30
2018-09-02T21:54:00.160Z,10.53
2018-09-02T21:56:35.056Z,12.27
2018-09-02T21:59:09.876Z,12.90
2018-09-02T22:01:44.742Z,11.97
2018-09-02T22:04:19.761Z,10.27
2018-09-02T22:06:54.736Z,10.70
2018-09-02T22:09:29.666Z,11.73
2018-09-02T22:12:04.717Z,9.33
2018-09-02T22:14:39.389Z,10.37
2018-09-02T22:17:14.744Z,9.23
2018-09-02T22:19:49.877Z,11.17
2018-09-02T22:22:24.631Z,11.70
2018-09-02T22:24:59.895Z,10.47
2018-09-02T22:27:34.844Z,11.47
2018-09-02T22:30:10.281Z,12.23
2018-09-02T22:32:44.996Z,14.47
2018-09-02T22:35:20.004Z,14.27
2018-09-02T22:37:54.817Z,13.63
2018-09-02T22:40:29.727Z,9.60
2018-09-02T22:43:04.721Z,11.93
2018-09-02T22:45:39.685Z,13.33
2018-09-02T22:48:14.601Z,11.60
2018-09-02T22:50:49.496Z,10.90
2018-09-02T22:53:24.911Z,20.13
2018-09-02T22:56:00.109Z,11.13
2018-09-02T22:58:35.022Z,11.90
2018-09-02T23:01:10.023Z,10.17
2018-09-02T23:03:45.053Z,13.23
2018-09-02T23:06:19.931Z,8.80
2018-09-02T23:08:54.620Z,10.80
2018-09-02T23:11:29.548Z,12.33
2018-09-02T23:14:04.568Z,11.17
2018-09-02T23:16:39.667Z,11.00
2018-09-02T23:19:14.708Z,12.20
2018-09-02T23:21:49.848Z,10.43
2018-09-02T23:24:24.584Z,9.63
2018-09-02T23:27:00.716Z,13.07
2018-09-02T23:29:36.403Z,10.83
2018-09-02T23:32:11.107Z,11.77
2018-09-02T23:34:46.283Z,11.60
2018-09-02T23:37:21.316Z,10.83
2018-09-02T23:39:56.256Z,11.00
2018-09-02T23:42:31.255Z,9.80
2018-09-02T23:45:06.617Z,8.37
2018-09-02T23:47:41.543Z,9.40
2018-09-02T23:50:16.729Z,9.50
2018-09-02T23:52:51.400Z,9.37
2018-09-02T23:55:26.352Z,12.90
2018-09-02T23:58:01.247Z,12.77
